Time;durP1;ratioP1;P1;durP2;ratioP2;P2;SDS_P1;SDS_P2;PMS_P1;PMS_P2;Temp;Humidity;BMP_temperature;BMP_pressure;BME280_temperature;BME280_humidity;BME280_pressure;Samples;Min_cycle;Max_cycle;Signal;HPM_P1;HPM_P2
2022/07/03 00:01:35;;;;;;;1999.90;999.90;;;18.50;99.90;;;;;;5093584;28;20547;-71
2022/07/03 00:04:01;;;;;;;1999.90;999.90;;;18.60;99.90;;;;;;5083751;28;20197;-71
2022/07/03 00:06:26;;;;;;;1999.90;999.90;;;18.50;99.90;;;;;;5073977;28;20209;-71
2022/07/03 00:08:53;;;;;;;1999.90;999.90;;;18.50;99.90;;;;;;5055717;28;20189;-71
2022/07/03 00:11:20;;;;;;;1999.90;999.90;;;18.40;99.90;;;;;;5058666;28;20559;-71
2022/07/03 00:13:45;;;;;;;1999.90;999.90;;;18.50;99.90;;;;;;5080910;28;20181;-71
2022/07/03 00:16:11;;;;;;;1999.90;999.90;;;18.50;99.90;;;;;;5052088;28;20178;-71
2022/07/03 00:18:37;;;;;;;1999.90;999.90;;;18.40;99.90;;;;;;5066751;28;20185;-71
2022/07/03 00:21:05;;;;;;;1999.90;999.90;;;18.40;99.90;;;;;;5061185;28;20587;-71
2022/07/03 00:23:45;;;;;;;1999.90;999.90;;;18.40;99.90;;;;;;5065179;28;20649;-71
2022/07/03 00:26:13;;;;;;;1999.90;999.90;;;18.40;99.90;;;;;;5078378;28;20646;-71
2022/07/03 00:28:40;;;;;;;1999.90;999.90;;;18.40;99.90;;;;;;5077790;28;20251;-71
2022/07/03 00:31:08;;;;;;;1999.90;999.90;;;18.50;99.90;;;;;;5079583;28;20205;-71
2022/07/03 00:33:36;;;;;;;1999.90;999.90;;;18.60;99.90;;;;;;5066360;28;20200;-71
2022/07/03 00:36:02;;;;;;;1999.90;999.90;;;18.60;99.90;;;;;;5055329;28;20246;-72
2022/07/03 00:38:28;;;;;;;1999.90;999.90;;;18.50;99.90;;;;;;5056125;28;20652;-71
2022/07/03 00:40:54;;;;;;;1999.90;999.90;;;18.60;99.90;;;;;;5062066;28;20192;-71
2022/07/03 00:43:20;;;;;;;1999.90;999.90;;;18.70;99.90;;;;;;5060965;28;20514;-71
2022/07/03 00:45:49;;;;;;;1999.90;999.90;;;18.70;99.90;;;;;;5073957;28;20609;-71
2022/07/03 00:48:17;;;;;;;1999.90;999.90;;;18.70;99.90;;;;;;5077098;28;20173;-71
2022/07/03 00:50:48;;;;;;;1999.90;999.90;;;18.70;99.90;;;;;;5085205;28;20201;-73
2022/07/03 00:53:18;;;;;;;1999.90;999.90;;;18.70;99.90;;;;;;5084701;28;20177;-71
2022/07/03 00:55:48;;;;;;;1999.90;999.90;;;18.70;99.90;;;;;;5069220;28;20630;-71
2022/07/03 00:58:19;;;;;;;1999.90;999.90;;;18.60;99.90;;;;;;5073442;28;20181;-71
2022/07/03 01:00:45;;;;;;;1999.90;999.90;;;18.60;99.90;;;;;;5069606;28;20193;-71
2022/07/03 01:03:19;;;;;;;1999.90;999.90;;;18.60;99.90;;;;;;5055156;28;20200;-71
2022/07/03 01:05:49;;;;;;;1999.90;999.90;;;18.60;99.90;;;;;;5072760;28;20641;-72
2022/07/03 01:08:37;;;;;;;1999.90;999.90;;;18.60;99.90;;;;;;5063155;28;20181;-71
2022/07/03 01:11:29;;;;;;;1999.90;999.90;;;18.60;99.90;;;;;;5061333;28;20677;-71
2022/07/03 01:14:23;;;;;;;1999.90;999.90;;;18.70;99.90;;;;;;5059481;28;20204;-71
2022/07/03 01:16:53;;;;;;;1999.90;999.90;;;18.60;99.90;;;;;;5085381;28;20173;-71
2022/07/03 01:19:42;;;;;;;1999.90;999.90;;;18.60;99.90;;;;;;5070064;28;20243;-71
2022/07/03 01:22:25;;;;;;;1999.90;999.90;;;18.60;99.90;;;;;;5067119;28;20263;-71
2022/07/03 01:25:11;;;;;;;1999.90;999.90;;;18.50;99.90;;;;;;5086136;28;20184;-70
2022/07/03 01:28:01;;;;;;;1999.90;999.90;;;18.60;99.90;;;;;;5071774;28;20506;-71
2022/07/03 01:30:32;;;;;;;1999.90;999.90;;;18.60;99.90;;;;;;5074136;28;20280;-70
2022/07/03 01:33:07;;;;;;;1999.90;999.90;;;18.60;99.90;;;;;;5072692;28;20230;-70
2022/07/03 01:35:35;;;;;;;1999.90;999.90;;;18.60;99.90;;;;;;5075533;28;20169;-70
2022/07/03 01:38:04;;;;;;;1999.90;999.90;;;18.60;99.90;;;;;;5060690;28;20515;-71
2022/07/03 01:40:32;;;;;;;1999.90;999.90;;;18.60;99.90;;;;;;5059662;28;20224;-71
2022/07/03 01:43:01;;;;;;;1999.90;999.90;;;18.50;99.90;;;;;;5073775;28;20180;-71
2022/07/03 01:45:30;;;;;;;1999.90;999.90;;;18.60;99.90;;;;;;5073614;28;20177;-73
2022/07/03 01:47:57;;;;;;;1999.90;999.90;;;18.60;99.90;;;;;;5082045;28;20711;-70
2022/07/03 01:50:25;;;;;;;1999.90;999.90;;;18.60;99.90;;;;;;5070269;28;20254;-70
2022/07/03 01:52:52;;;;;;;1999.90;999.90;;;18.60;99.90;;;;;;5064364;28;20213;-70
2022/07/03 01:55:20;;;;;;;1999.90;999.90;;;18.40;99.90;;;;;;5067592;28;20706;-71
2022/07/03 01:57:51;;;;;;;1999.90;999.90;;;18.40;99.90;;;;;;5087494;28;20228;-70
2022/07/03 02:00:20;;;;;;;1999.90;999.90;;;18.40;99.90;;;;;;5079904;28;20234;-70
2022/07/03 02:02:58;;;;;;;1999.90;999.90;;;18.30;99.90;;;;;;5084953;28;20186;-70
2022/07/03 02:05:44;;;;;;;1999.90;999.90;;;18.40;99.90;;;;;;5054665;28;20188;-70
2022/07/03 02:08:44;;;;;;;1999.90;999.90;;;18.30;99.90;;;;;;5080027;28;20625;-70
2022/07/03 02:11:18;;;;;;;1999.90;999.90;;;18.20;99.90;;;;;;5068910;28;20657;-71
2022/07/03 02:14:03;;;;;;;1999.90;999.90;;;18.20;99.90;;;;;;5061331;28;20339;-70
2022/07/03 02:16:32;;;;;;;1999.90;999.90;;;18.20;99.90;;;;;;5090953;28;20176;-70
2022/07/03 02:19:05;;;;;;;1999.90;999.90;;;18.10;99.90;;;;;;5073756;28;20188;-71
2022/07/03 02:21:31;;;;;;;1999.90;999.90;;;18.00;99.90;;;;;;5057934;28;20211;-69
2022/07/03 02:24:05;;;;;;;1999.90;999.90;;;18.00;99.90;;;;;;5085259;28;20276;-70
2022/07/03 02:26:38;;;;;;;1999.90;999.90;;;18.00;99.90;;;;;;5084992;28;20228;-71
2022/07/03 02:29:05;;;;;;;1999.90;999.90;;;18.00;99.90;;;;;;5059986;28;20180;-70
2022/07/03 02:31:39;;;;;;;1999.90;999.90;;;17.90;99.90;;;;;;5067536;28;20652;-70
2022/07/03 02:34:06;;;;;;;1999.90;999.90;;;17.90;99.90;;;;;;5072813;28;20185;-70
2022/07/03 02:36:33;;;;;;;1999.90;999.90;;;17.80;99.90;;;;;;5080645;28;20272;-70
2022/07/03 02:38:59;;;;;;;1999.90;999.90;;;17.80;99.90;;;;;;5076587;28;20177;-71
2022/07/03 02:41:46;;;;;;;1999.90;999.90;;;17.80;99.90;;;;;;5074224;28;20208;-70
2022/07/03 02:44:50;;;;;;;1999.90;999.90;;;17.80;99.90;;;;;;5061555;28;20503;-70
2022/07/03 02:47:37;;;;;;;1999.90;999.90;;;17.90;99.90;;;;;;5046424;28;20288;-71
2022/07/03 02:50:05;;;;;;;1999.90;999.90;;;17.80;99.90;;;;;;5078254;28;20692;-71
2022/07/03 02:52:44;;;;;;;1999.90;999.90;;;17.80;99.90;;;;;;5086988;28;20190;-70
2022/07/03 02:55:44;;;;;;;1999.90;999.90;;;17.70;99.90;;;;;;5077786;28;20174;-70
2022/07/03 02:58:33;;;;;;;1999.90;999.90;;;17.80;99.90;;;;;;5087019;28;20177;-70
2022/07/03 03:01:08;;;;;;;1999.90;999.90;;;17.80;99.90;;;;;;5093534;28;20207;-70
2022/07/03 03:03:35;;;;;;;1999.90;999.90;;;17.80;99.90;;;;;;5076008;28;20180;-70
2022/07/03 03:06:15;;;;;;;1999.90;999.90;;;17.90;99.90;;;;;;5093866;28;20271;-71
2022/07/03 03:08:47;;;;;;;1999.90;999.90;;;17.90;99.90;;;;;;5062363;28;20192;-70
2022/07/03 03:11:45;;;;;;;1999.90;999.90;;;17.80;99.90;;;;;;5077191;28;20250;-70
2022/07/03 03:14:19;;;;;;;1999.90;999.90;;;17.80;99.90;;;;;;5078868;28;20271;-70
2022/07/03 03:16:52;;;;;;;1999.90;999.90;;;17.80;99.90;;;;;;5065509;28;20550;-70
2022/07/03 03:19:22;;;;;;;1999.90;999.90;;;17.80;99.90;;;;;;5086523;28;20264;-70
2022/07/03 03:22:20;;;;;;;1999.90;999.90;;;17.90;99.90;;;;;;5087782;28;20185;-70
2022/07/03 03:24:47;;;;;;;1999.90;999.90;;;17.80;99.90;;;;;;5071498;28;20192;-70
2022/07/03 03:27:13;;;;;;;1999.90;999.90;;;17.90;99.90;;;;;;5075061;28;20174;-72
2022/07/03 03:29:40;;;;;;;1999.90;999.90;;;17.80;99.90;;;;;;5088103;28;20234;-70
2022/07/03 03:32:06;;;;;;;1999.90;999.90;;;17.80;99.90;;;;;;5074036;28;20200;-70
2022/07/03 03:34:32;;;;;;;1999.90;999.90;;;17.90;99.90;;;;;;5058985;28;20173;-70
2022/07/03 03:36:59;;;;;;;1999.90;999.90;;;17.80;99.90;;;;;;5062770;28;20213;-70
2022/07/03 03:39:25;;;;;;;1999.90;999.90;;;17.80;99.90;;;;;;5066345;28;20197;-70
2022/07/03 03:41:52;;;;;;;1999.90;999.90;;;17.80;99.90;;;;;;5074193;28;20239;-70
2022/07/03 03:44:20;;;;;;;1999.90;999.90;;;17.80;99.90;;;;;;5048262;28;20222;-73
2022/07/03 03:46:46;;;;;;;1999.90;999.90;;;17.80;99.90;;;;;;5079928;28;20268;-70
2022/07/03 03:49:12;;;;;;;1999.90;999.90;;;17.80;99.90;;;;;;5074294;28;20213;-73
2022/07/03 03:51:39;;;;;;;1999.90;999.90;;;17.80;99.90;;;;;;5062730;28;20209;-70
2022/07/03 03:54:04;;;;;;;1999.90;999.90;;;17.70;99.90;;;;;;5082978;28;20674;-70
2022/07/03 03:56:30;;;;;;;1999.90;999.90;;;17.70;99.90;;;;;;5052508;28;20275;-70
2022/07/03 03:58:56;;;;;;;1999.90;999.90;;;17.80;99.90;;;;;;5083726;28;20193;-71
2022/07/03 04:01:21;;;;;;;1999.90;999.90;;;17.80;99.90;;;;;;5085550;28;20271;-70
2022/07/03 04:03:47;;;;;;;1999.90;999.90;;;17.80;99.90;;;;;;5039784;28;20645;-70
2022/07/03 04:06:13;;;;;;;1999.90;999.90;;;17.90;99.90;;;;;;5074783;28;20188;-71
2022/07/03 04:08:38;;;;;;;1999.90;999.90;;;17.70;99.90;;;;;;5090810;28;20299;-70
2022/07/03 04:11:04;;;;;;;1999.90;999.90;;;17.60;99.90;;;;;;5058333;28;20224;-71
2022/07/03 04:13:30;;;;;;;1999.90;999.90;;;17.70;99.90;;;;;;5078728;28;20188;-71
2022/07/03 04:15:56;;;;;;;1999.90;999.90;;;17.70;99.90;;;;;;5055963;28;20212;-70
2022/07/03 04:18:22;;;;;;;1999.90;999.90;;;17.80;99.90;;;;;;5057575;28;20181;-71
2022/07/03 04:20:48;;;;;;;1999.90;999.90;;;17.70;99.90;;;;;;5065379;28;20597;-70
2022/07/03 04:23:14;;;;;;;1999.90;999.90;;;17.70;99.90;;;;;;5066152;28;20219;-71
2022/07/03 04:25:39;;;;;;;1999.90;999.90;;;17.70;99.90;;;;;;5080721;28;20178;-70
2022/07/03 04:28:05;;;;;;;1999.90;999.90;;;17.70;99.90;;;;;;5059388;28;20195;-73
2022/07/03 04:30:31;;;;;;;1999.90;999.90;;;17.70;99.90;;;;;;5055693;28;20658;-70
2022/07/03 04:32:56;;;;;;;1999.90;999.90;;;17.60;99.90;;;;;;5085013;28;20199;-72
2022/07/03 04:35:22;;;;;;;1999.90;999.90;;;17.50;99.90;;;;;;5040182;28;20184;-70
2022/07/03 04:37:48;;;;;;;1999.90;999.90;;;17.50;99.90;;;;;;5073505;28;20188;-71
2022/07/03 04:40:14;;;;;;;1999.90;999.90;;;17.50;99.90;;;;;;5074892;28;20201;-70
2022/07/03 04:42:40;;;;;;;1999.90;999.90;;;17.60;99.90;;;;;;5084167;28;20200;-72
2022/07/03 04:45:07;;;;;;;1999.90;999.90;;;17.60;99.90;;;;;;5058537;28;20185;-70
2022/07/03 04:47:32;;;;;;;1999.90;999.90;;;17.60;99.90;;;;;;5061053;28;20864;-70
2022/07/03 04:49:58;;;;;;;1999.90;999.90;;;17.90;99.90;;;;;;5057909;28;20182;-70
2022/07/03 04:52:24;;;;;;;1999.90;999.90;;;17.90;99.90;;;;;;5061080;28;20226;-71
2022/07/03 04:54:49;;;;;;;1999.90;999.90;;;18.00;99.90;;;;;;5073550;28;20342;-71
2022/07/03 04:57:15;;;;;;;1999.90;999.90;;;18.00;99.90;;;;;;5060898;28;20186;-71
2022/07/03 04:59:41;;;;;;;1999.90;999.90;;;18.10;99.90;;;;;;5088101;28;20183;-71
2022/07/03 05:02:07;;;;;;;1999.90;999.90;;;18.30;99.90;;;;;;5088296;28;20237;-70
2022/07/03 05:04:33;;;;;;;1999.90;999.90;;;18.50;99.90;;;;;;5081741;28;20283;-71
2022/07/03 05:06:59;;;;;;;1999.90;999.90;;;18.60;99.90;;;;;;5083024;28;20188;-71
2022/07/03 05:09:25;;;;;;;1999.90;999.90;;;18.60;99.90;;;;;;5066939;28;20626;-71
2022/07/03 05:11:51;;;;;;;1999.90;999.90;;;18.70;99.90;;;;;;5081720;28;20205;-71
2022/07/03 05:14:17;;;;;;;1999.90;999.90;;;18.70;99.90;;;;;;5036551;28;20181;-71
2022/07/03 05:16:42;;;;;;;1999.90;999.90;;;18.80;99.90;;;;;;5062728;28;20186;-70
2022/07/03 05:19:08;;;;;;;1999.90;999.90;;;18.90;99.90;;;;;;5041145;28;20209;-74
2022/07/03 05:21:34;;;;;;;1999.90;999.90;;;18.90;99.90;;;;;;5079013;28;20196;-71
2022/07/03 05:23:59;;;;;;;1999.90;999.90;;;19.00;99.90;;;;;;5079217;28;20181;-71
2022/07/03 05:26:25;;;;;;;1999.90;999.90;;;19.00;99.90;;;;;;5067350;28;20212;-72
2022/07/03 05:28:50;;;;;;;1999.90;999.90;;;19.00;99.90;;;;;;5091816;28;20584;-71
2022/07/03 05:31:17;;;;;;;1999.90;999.90;;;19.20;99.90;;;;;;5090742;28;20236;-71
2022/07/03 05:33:43;;;;;;;1999.90;999.90;;;19.30;99.90;;;;;;5087197;28;20197;-71
2022/07/03 05:36:08;;;;;;;1999.90;999.90;;;19.20;99.90;;;;;;5066025;28;20258;-71
2022/07/03 05:41:19;;;;;;;1999.90;999.90;;;19.00;99.90;;;;;;5067694;28;20243;-72
2022/07/03 05:43:45;;;;;;;1999.90;999.90;;;18.90;99.90;;;;;;5091364;28;20184;-71
2022/07/03 05:46:10;;;;;;;1999.90;999.90;;;18.80;99.90;;;;;;5091574;28;20271;-71
2022/07/03 05:48:36;;;;;;;1999.90;999.90;;;18.60;99.90;;;;;;5072846;28;20268;-72
2022/07/03 05:51:02;;;;;;;1999.90;999.90;;;18.70;99.90;;;;;;5079105;28;20209;-71
2022/07/03 05:53:29;;;;;;;1999.90;999.90;;;18.40;99.90;;;;;;5076918;28;20196;-71
2022/07/03 05:55:54;;;;;;;1999.90;999.90;;;18.30;99.90;;;;;;5072948;28;20185;-71
2022/07/03 05:58:20;;;;;;;1999.90;999.90;;;18.30;99.90;;;;;;5066515;28;20267;-72
2022/07/03 06:00:46;;;;;;;1999.90;999.90;;;18.40;99.90;;;;;;5051655;28;20280;-72
2022/07/03 06:03:11;;;;;;;1999.90;999.90;;;18.50;99.90;;;;;;5050187;28;20184;-77
2022/07/03 06:05:38;;;;;;;1999.90;999.90;;;18.50;99.90;;;;;;5062078;28;20234;-71
2022/07/03 06:08:04;;;;;;;1999.90;999.90;;;18.60;99.90;;;;;;5073218;28;20265;-72
2022/07/03 06:10:30;;;;;;;1999.90;999.90;;;18.80;99.90;;;;;;5066422;28;20201;-72
2022/07/03 06:12:56;;;;;;;1999.90;999.90;;;19.00;99.90;;;;;;5095670;28;20180;-71
2022/07/03 06:15:21;;;;;;;1999.90;999.90;;;19.30;99.90;;;;;;5081686;28;20184;-71
2022/07/03 06:17:47;;;;;;;1999.90;999.90;;;19.40;99.90;;;;;;5063354;28;20188;-71
2022/07/03 06:20:13;;;;;;;1999.90;999.90;;;19.30;99.90;;;;;;5041576;28;20293;-73
2022/07/03 06:22:39;;;;;;;1999.90;999.90;;;19.20;99.90;;;;;;5083355;28;20632;-71
2022/07/03 06:25:06;;;;;;;1999.90;999.90;;;19.40;99.90;;;;;;5049257;28;20204;-71
2022/07/03 06:27:32;;;;;;;1999.90;999.90;;;19.60;99.90;;;;;;5059557;28;20185;-71
2022/07/03 06:29:58;;;;;;;1999.90;999.90;;;19.80;99.90;;;;;;5072133;28;20181;-71
2022/07/03 06:32:23;;;;;;;1999.90;999.90;;;19.80;99.90;;;;;;5066295;28;20645;-71
2022/07/03 06:34:49;;;;;;;1999.90;999.90;;;19.80;99.90;;;;;;5050782;28;20630;-71
2022/07/03 06:37:15;;;;;;;1999.90;999.90;;;19.70;99.90;;;;;;5082833;28;20711;-72
2022/07/03 06:39:41;;;;;;;1999.90;999.90;;;19.80;99.90;;;;;;5082774;28;20231;-72
2022/07/03 06:42:06;;;;;;;1999.90;999.90;;;19.90;99.90;;;;;;5075083;28;20216;-72
2022/07/03 06:44:32;;;;;;;1999.90;999.90;;;20.10;99.90;;;;;;5081492;28;20178;-71
2022/07/03 06:47:02;;;;;;;1999.90;999.90;;;20.30;99.90;;;;;;5064015;28;20188;-72
2022/07/03 06:49:29;;;;;;;1999.90;999.90;;;20.60;99.90;;;;;;5067274;28;20363;-71
2022/07/03 06:51:54;;;;;;;1999.90;999.90;;;21.00;99.90;;;;;;5057796;28;20216;-71
2022/07/03 06:54:20;;;;;;;1999.90;999.90;;;21.40;99.90;;;;;;5075838;28;20186;-72
2022/07/03 06:56:46;;;;;;;1999.90;999.90;;;22.20;99.90;;;;;;5060406;28;20184;-71
2022/07/03 06:59:11;;;;;;;1999.90;999.90;;;23.00;99.90;;;;;;5094112;28;20263;-71
2022/07/03 07:01:37;;;;;;;1999.90;999.90;;;23.50;99.90;;;;;;5074509;28;20284;-71
2022/07/03 07:04:03;;;;;;;1999.90;999.90;;;23.90;99.90;;;;;;5054280;28;20200;-71
2022/07/03 07:06:29;;;;;;;1999.90;999.90;;;24.00;99.90;;;;;;5094568;28;20169;-71
2022/07/03 07:08:54;;;;;;;1999.90;999.90;;;23.70;99.90;;;;;;5092069;28;20180;-71
2022/07/03 07:11:20;;;;;;;1999.90;999.90;;;24.10;99.90;;;;;;5062768;28;20262;-72
2022/07/03 07:13:46;;;;;;;1999.90;999.90;;;25.40;99.90;;;;;;5076237;28;20193;-71
2022/07/03 07:16:12;;;;;;;1999.90;999.90;;;26.90;99.90;;;;;;5062438;28;20314;-71
2022/07/03 07:18:40;;;;;;;897.40;603.45;;;28.40;99.90;;;;;;5070376;28;20180;-71
2022/07/03 07:21:05;;;;;;;1437.63;999.90;;;30.00;99.90;;;;;;5058699;28;20233;-71
2022/07/03 07:23:31;;;;;;;1551.78;999.90;;;31.00;99.90;;;;;;5069443;28;20180;-70
2022/07/03 07:25:57;;;;;;;1571.93;999.90;;;31.70;99.90;;;;;;5058686;28;20263;-70
2022/07/03 07:28:22;;;;;;;1570.47;999.90;;;32.00;99.90;;;;;;5076525;28;20176;-71
2022/07/03 07:30:48;;;;;;;1561.78;999.90;;;32.60;99.90;;;;;;5065398;28;20212;-71
2022/07/03 07:33:14;;;;;;;1568.72;999.90;;;33.10;99.90;;;;;;5070903;28;20205;-72
2022/07/03 07:35:39;;;;;;;1531.00;999.90;;;33.80;99.90;;;;;;5075229;28;20172;-71
2022/07/03 07:38:05;;;;;;;1496.68;999.90;;;34.50;99.90;;;;;;5081632;28;20661;-71
2022/07/03 07:40:30;;;;;;;1488.05;999.90;;;34.70;99.90;;;;;;5087001;28;20188;-71
2022/07/03 07:42:56;;;;;;;1442.40;999.90;;;35.40;99.90;;;;;;5068467;28;20649;-72
2022/07/03 07:45:22;;;;;;;1450.35;999.90;;;35.20;99.90;;;;;;5076332;28;20218;-71
2022/07/03 07:47:48;;;;;;;1436.22;999.90;;;35.60;99.90;;;;;;5075700;28;20486;-71
2022/07/03 07:50:14;;;;;;;1443.15;999.90;;;35.20;99.90;;;;;;5092689;28;20212;-72
2022/07/03 07:52:40;;;;;;;1399.32;999.90;;;34.80;99.90;;;;;;5056315;28;20268;-71
2022/07/03 07:55:07;;;;;;;1402.68;999.90;;;34.60;99.90;;;;;;5068036;28;20267;-74
2022/07/03 07:57:45;;;;;;;1385.53;999.90;;;34.80;99.90;;;;;;5075589;28;20173;-71
2022/07/03 08:00:14;;;;;;;1389.07;999.90;;;35.30;99.90;;;;;;5085780;28;20183;-75
2022/07/03 08:05:36;;;;;;;1378.88;999.90;;;36.00;99.90;;;;;;5074351;28;20266;-71
2022/07/03 08:08:12;;;;;;;1373.60;999.90;;;35.80;99.90;;;;;;5060036;28;20184;-71
2022/07/03 08:10:42;;;;;;;1381.38;999.90;;;36.00;99.90;;;;;;5079390;28;20210;-76
2022/07/03 08:13:08;;;;;;;1378.10;999.90;;;36.60;99.90;;;;;;5074067;28;20185;-71
2022/07/03 08:15:35;;;;;;;1379.07;999.90;;;36.90;99.90;;;;;;5078307;28;20172;-71
2022/07/03 08:18:00;;;;;;;1376.90;999.90;;;36.40;99.90;;;;;;5080070;28;20694;-71
2022/07/03 08:20:27;;;;;;;1383.85;999.90;;;36.40;99.90;;;;;;5052852;28;20183;-71
2022/07/03 08:22:52;;;;;;;1375.60;999.90;;;36.30;99.90;;;;;;5079275;28;20179;-71
2022/07/03 08:25:18;;;;;;;1376.82;999.90;;;35.90;99.90;;;;;;5091562;28;20212;-73
2022/07/03 08:27:44;;;;;;;1374.07;999.90;;;35.90;99.90;;;;;;5084754;28;20218;-73
2022/07/03 08:30:10;;;;;;;1366.90;999.90;;;35.70;99.90;;;;;;5084992;28;20629;-75
2022/07/03 08:32:36;;;;;;;1367.18;999.90;;;35.40;99.90;;;;;;5070407;28;20200;-73
2022/07/03 08:35:01;;;;;;;1363.78;999.90;;;35.00;99.90;;;;;;5052011;28;20561;-74
2022/07/03 08:37:27;;;;;;;1367.65;999.90;;;34.90;99.90;;;;;;5071874;28;20180;-74
2022/07/03 08:39:53;;;;;;;1361.55;999.90;;;34.90;99.90;;;;;;5074347;28;20271;-73
2022/07/03 08:42:21;;;;;;;1367.15;999.90;;;35.20;99.60;;;;;;5074363;28;20179;-73
2022/07/03 08:44:50;;;;;;;1375.65;999.90;;;35.20;99.40;;;;;;5080778;28;20169;-72
2022/07/03 08:47:17;;;;;;;1366.60;999.90;;;35.30;99.90;;;;;;5072196;28;20192;-71
2022/07/03 08:49:44;;;;;;;1368.97;999.90;;;35.70;99.70;;;;;;5067869;28;20188;-72
2022/07/03 08:52:11;;;;;;;1369.75;999.90;;;36.00;99.30;;;;;;5089302;28;20211;-71
2022/07/03 08:54:37;;;;;;;1364.60;999.90;;;36.10;98.80;;;;;;5064068;28;20188;-71
2022/07/03 08:57:03;;;;;;;1373.40;999.90;;;36.40;98.80;;;;;;5064433;28;20592;-71
2022/07/03 08:59:39;;;;;;;1373.57;999.90;;;36.00;98.60;;;;;;5055127;28;20230;-71
2022/07/03 09:02:05;;;;;;;1361.07;999.90;;;35.20;98.70;;;;;;5063565;28;20179;-71
2022/07/03 09:04:35;;;;;;;1350.57;999.90;;;33.70;99.30;;;;;;5084548;28;20199;-72
2022/07/03 09:07:01;;;;;;;1353.28;999.90;;;33.10;99.80;;;;;;5072735;28;20585;-71
2022/07/03 09:09:27;;;;;;;1352.03;999.90;;;33.30;99.70;;;;;;5079784;28;20180;-71
2022/07/03 09:11:53;;;;;;;1357.00;999.90;;;33.30;99.90;;;;;;5070776;28;20291;-71
2022/07/03 09:14:19;;;;;;;1360.68;999.90;;;32.80;99.90;;;;;;5062900;28;20266;-70
2022/07/03 09:16:45;;;;;;;1353.43;999.90;;;32.40;99.90;;;;;;5085606;28;20188;-71
2022/07/03 09:19:11;;;;;;;1363.60;999.90;;;31.60;99.90;;;;;;5056349;28;20208;-72
2022/07/03 09:21:40;;;;;;;1369.00;999.90;;;32.20;99.90;;;;;;5072827;28;20187;-72
2022/07/03 09:24:10;;;;;;;1360.45;999.90;;;32.70;99.90;;;;;;5074239;28;20196;-74
2022/07/03 09:26:49;;;;;;;1364.47;999.90;;;32.10;99.90;;;;;;5057072;28;20236;-71
2022/07/03 09:29:15;;;;;;;1369.13;999.90;;;31.60;99.90;;;;;;5070841;28;20187;-70
2022/07/03 09:31:40;;;;;;;1372.38;999.90;;;31.90;99.90;;;;;;5060986;28;20209;-71
2022/07/03 09:34:09;;;;;;;1375.85;999.90;;;32.60;99.90;;;;;;5064142;28;20189;-70
2022/07/03 09:36:39;;;;;;;1370.32;999.90;;;33.00;99.60;;;;;;5076402;28;20176;-70
2022/07/03 09:39:20;;;;;;;1371.72;999.90;;;32.90;99.90;;;;;;5056437;28;20169;-71
2022/07/03 09:41:53;;;;;;;1364.72;999.90;;;32.20;99.90;;;;;;5072355;28;20218;-71
2022/07/03 09:44:35;;;;;;;1376.28;999.90;;;31.10;99.90;;;;;;5074939;28;20191;-72
2022/07/03 09:47:11;;;;;;;1369.28;999.90;;;30.50;99.90;;;;;;5072039;28;20175;-75
2022/07/03 09:49:59;;;;;;;1367.18;999.90;;;29.50;99.90;;;;;;5068962;28;20585;-71
2022/07/03 09:52:48;;;;;;;1363.15;999.90;;;28.60;99.90;;;;;;5069095;28;20671;-71
2022/07/03 09:55:17;;;;;;;1367.47;999.90;;;27.90;99.90;;;;;;5059129;28;20189;-70
2022/07/03 09:57:44;;;;;;;1374.07;999.90;;;27.10;99.90;;;;;;5087387;28;20709;-70
2022/07/03 10:00:23;;;;;;;1381.10;999.90;;;27.00;99.90;;;;;;5086042;28;20527;-70
2022/07/03 10:02:59;;;;;;;1406.05;999.90;;;27.00;99.90;;;;;;5088937;28;20194;-70
2022/07/03 10:05:31;;;;;;;1417.07;999.90;;;26.50;99.90;;;;;;5062784;28;20664;-71
2022/07/03 10:08:05;;;;;;;1448.10;999.90;;;26.20;99.90;;;;;;5088737;28;20181;-70
2022/07/03 10:10:33;;;;;;;1481.25;999.90;;;26.20;99.90;;;;;;5089448;28;20205;-70
2022/07/03 10:13:00;;;;;;;1502.20;999.90;;;26.30;99.90;;;;;;5079442;28;20181;-71
2022/07/03 10:15:28;;;;;;;1496.45;999.90;;;26.20;99.90;;;;;;5064059;28;20707;-70
2022/07/03 10:17:56;;;;;;;1521.45;999.90;;;25.80;99.90;;;;;;5090988;28;20185;-70
2022/07/03 10:20:34;;;;;;;1554.00;999.90;;;26.20;99.90;;;;;;5090296;28;20177;-70
2022/07/03 10:23:00;;;;;;;1562.00;999.90;;;26.00;99.90;;;;;;5080469;28;20657;-71
2022/07/03 10:25:26;;;;;;;1561.72;999.90;;;26.20;99.90;;;;;;5055789;28;20212;-71
2022/07/03 10:27:52;;;;;;;1575.45;999.90;;;26.10;99.90;;;;;;5095146;28;20205;-70
2022/07/03 10:30:19;;;;;;;1562.80;999.90;;;26.20;99.90;;;;;;5048330;28;20257;-70
2022/07/03 10:32:46;;;;;;;1584.43;999.90;;;26.40;99.90;;;;;;5057796;28;20245;-69
2022/07/03 10:35:15;;;;;;;1565.13;999.90;;;26.40;99.90;;;;;;5075714;28;20188;-69
2022/07/03 10:38:02;;;;;;;1580.30;999.90;;;26.60;99.90;;;;;;5075695;28;20169;-70
2022/07/03 10:46:22;;;;;;;1563.20;999.90;;;26.40;99.90;;;;;;5075686;28;20238;-71
2022/07/03 10:49:08;;;;;;;1575.40;999.90;;;26.30;99.90;;;;;;5073547;28;20200;-69
2022/07/03 10:52:01;;;;;;;1558.82;999.90;;;26.30;99.90;;;;;;5073639;28;20196;-71
2022/07/03 10:54:33;;;;;;;1573.05;999.90;;;26.40;99.90;;;;;;5087561;28;20532;-71
2022/07/03 10:57:05;;;;;;;1579.93;999.90;;;26.30;99.90;;;;;;5062327;28;20184;-71
2022/07/03 10:59:44;;;;;;;1567.25;999.90;;;26.30;99.90;;;;;;5075380;28;20216;-69
2022/07/03 11:02:37;;;;;;;1576.10;999.90;;;26.40;99.90;;;;;;5075973;28;20208;-70
2022/07/03 11:05:03;;;;;;;1576.45;999.90;;;26.40;99.90;;;;;;5079233;28;20200;-71
2022/07/03 11:07:32;;;;;;;1562.43;999.90;;;26.40;99.90;;;;;;5075400;28;20169;-71
2022/07/03 11:10:10;;;;;;;1577.32;999.90;;;26.60;99.90;;;;;;5070542;28;20176;-70
2022/07/03 11:13:03;;;;;;;1560.88;999.90;;;26.90;99.90;;;;;;5088775;28;20199;-70
2022/07/03 11:15:35;;;;;;;1582.90;999.90;;;26.70;99.90;;;;;;5088184;28;20652;-71
2022/07/03 11:18:32;;;;;;;1578.07;999.90;;;26.80;99.90;;;;;;5067080;28;20180;-70
2022/07/03 11:21:13;;;;;;;1563.15;999.90;;;26.80;99.90;;;;;;5071374;28;20626;-70
2022/07/03 11:24:04;;;;;;;1557.03;999.90;;;26.40;99.90;;;;;;5079377;28;20191;-75
2022/07/03 11:26:30;;;;;;;1554.78;999.90;;;25.90;99.90;;;;;;5067620;28;20189;-70
2022/07/03 11:28:56;;;;;;;1564.68;999.90;;;25.60;99.90;;;;;;5054136;28;20570;-70
2022/07/03 11:31:23;;;;;;;1571.88;999.90;;;25.60;99.90;;;;;;5081694;28;20197;-70
2022/07/03 11:33:51;;;;;;;1563.82;999.90;;;25.80;99.90;;;;;;5075655;28;20190;-71
2022/07/03 11:36:17;;;;;;;1585.15;999.90;;;25.80;99.90;;;;;;5057352;28;20231;-70
2022/07/03 11:39:06;;;;;;;1581.75;999.90;;;26.30;99.90;;;;;;5081636;28;20177;-70
2022/07/03 11:41:34;;;;;;;1580.28;999.90;;;26.40;99.90;;;;;;5078196;28;20178;-71
2022/07/03 11:44:02;;;;;;;1566.32;999.90;;;26.30;99.90;;;;;;5082385;28;20256;-71
2022/07/03 11:46:32;;;;;;;1567.88;999.90;;;26.10;99.90;;;;;;5074290;28;20193;-70
2022/07/03 11:49:14;;;;;;;1571.45;999.90;;;26.10;99.90;;;;;;5077972;28;20173;-71
2022/07/03 11:51:53;;;;;;;1567.25;999.90;;;26.20;99.90;;;;;;5086963;28;20211;-71
2022/07/03 11:54:19;;;;;;;1560.22;999.90;;;26.40;99.90;;;;;;5087860;28;20251;-70
2022/07/03 11:56:45;;;;;;;1570.80;999.90;;;26.70;99.90;;;;;;5086386;28;20224;-70
2022/07/03 11:59:11;;;;;;;1553.82;999.90;;;26.50;99.90;;;;;;5073784;28;20199;-70
2022/07/03 12:01:38;;;;;;;1544.50;999.90;;;26.60;99.90;;;;;;5073677;28;20283;-70
2022/07/03 12:04:05;;;;;;;1525.10;999.90;;;26.80;99.90;;;;;;5070028;28;20290;-70
2022/07/03 12:06:43;;;;;;;1534.90;999.90;;;26.70;99.90;;;;;;5079121;28;20173;-70
2022/07/03 12:09:35;;;;;;;1530.47;999.90;;;26.80;99.90;;;;;;5081826;28;20610;-71
2022/07/03 12:12:06;;;;;;;1537.43;999.90;;;26.80;99.90;;;;;;5063664;28;20266;-71
2022/07/03 12:14:55;;;;;;;1531.63;999.90;;;26.50;99.90;;;;;;5064922;28;20174;-72
2022/07/03 12:17:23;;;;;;;1515.60;999.90;;;26.50;99.90;;;;;;5075699;28;20281;-70
2022/07/03 12:19:53;;;;;;;1499.78;999.90;;;26.30;99.90;;;;;;5061084;28;20181;-71
2022/07/03 12:22:29;;;;;;;1506.88;999.90;;;26.10;99.90;;;;;;5073946;28;20177;-71
2022/07/03 12:25:03;;;;;;;1495.82;999.90;;;26.10;99.90;;;;;;5073495;28;20239;-70